createdAt,value
2022-11-09T00:00:19.683Z,65.67
2022-11-09T00:02:47.254Z,65.76
2022-11-09T00:05:14.869Z,65.65
2022-11-09T00:07:42.444Z,66.00
2022-11-09T00:10:10.292Z,65.48
2022-11-09T00:12:37.994Z,65.91
2022-11-09T00:15:05.552Z,65.45
2022-11-09T00:17:33.111Z,65.31
2022-11-09T00:20:00.694Z,65.72
2022-11-09T00:22:28.947Z,65.65
2022-11-09T00:24:56.533Z,65.29
2022-11-09T00:27:24.172Z,65.54
2022-11-09T00:29:51.735Z,65.41
2022-11-09T00:32:20.480Z,65.76
2022-11-09T00:34:52.206Z,65.67
2022-11-09T00:37:19.836Z,65.56
2022-11-09T00:39:47.478Z,65.56
2022-11-09T00:42:15.089Z,66.21
2022-11-09T00:44:42.907Z,65.76
2022-11-09T00:47:12.542Z,66.14
2022-11-09T00:49:40.145Z,66.19
2022-11-09T00:52:07.700Z,66.20
2022-11-09T00:54:35.244Z,66.30
2022-11-09T00:57:02.887Z,66.12
2022-11-09T00:59:31.867Z,66.22
2022-11-09T01:01:59.397Z,66.10
2022-11-09T01:04:27.010Z,66.12
2022-11-09T01:06:54.830Z,66.27
2022-11-09T01:09:22.396Z,66.06
2022-11-09T01:11:51.745Z,66.17
2022-11-09T01:14:19.287Z,66.28
2022-11-09T01:16:46.834Z,66.28
2022-11-09T01:19:14.388Z,66.70
2022-11-09T01:21:42.009Z,66.54
2022-11-09T01:24:09.862Z,66.86
2022-11-09T01:26:37.432Z,66.40
2022-11-09T01:29:05.276Z,66.46
2022-11-09T01:31:32.868Z,66.67
2022-11-09T01:34:00.471Z,66.75
2022-11-09T01:36:30.046Z,67.18
2022-11-09T01:38:57.579Z,67.45
2022-11-09T01:41:25.120Z,66.83
2022-11-09T01:43:52.638Z,67.20
2022-11-09T01:46:20.179Z,67.32
2022-11-09T01:48:48.878Z,67.05
2022-11-09T01:51:16.713Z,67.21
2022-11-09T01:53:44.234Z,67.34
2022-11-09T01:56:11.851Z,67.79
2022-11-09T01:58:39.364Z,67.31
2022-11-09T02:01:11.624Z,67.59
2022-11-09T02:03:39.275Z,67.46
2022-11-09T02:06:06.787Z,67.11
2022-11-09T02:08:34.346Z,67.86
2022-11-09T02:11:02.038Z,67.54
2022-11-09T02:13:32.938Z,67.52
2022-11-09T02:16:00.468Z,67.73
2022-11-09T02:18:28.021Z,67.92
2022-11-09T02:20:55.560Z,67.40
2022-11-09T02:23:23.200Z,67.49
2022-11-09T02:25:52.114Z,67.68
2022-11-09T02:28:19.637Z,67.82
2022-11-09T02:30:47.153Z,67.60
2022-11-09T02:33:14.721Z,67.86
2022-11-09T02:35:42.574Z,68.05
2022-11-09T02:38:10.520Z,67.78
2022-11-09T02:40:38.541Z,68.09
2022-11-09T02:43:06.065Z,67.92
2022-11-09T02:45:33.602Z,67.55
2022-11-09T02:48:01.188Z,68.00
2022-11-09T02:50:29.535Z,67.98
2022-11-09T02:52:57.072Z,68.07
2022-11-09T02:55:24.625Z,68.45
2022-11-09T02:57:52.433Z,68.39
2022-11-09T03:00:19.923Z,68.42
2022-11-09T03:02:47.796Z,68.69
2022-11-09T03:05:15.312Z,68.83
2022-11-09T03:07:42.823Z,68.56
2022-11-09T03:10:10.424Z,68.87
2022-11-09T03:12:37.959Z,68.62
2022-11-09T03:15:05.532Z,68.74
2022-11-09T03:17:33.119Z,68.76
2022-11-09T03:20:00.927Z,68.99
2022-11-09T03:22:28.473Z,69.20
2022-11-09T03:24:56.051Z,69.18
2022-11-09T03:27:23.896Z,68.93
2022-11-09T03:29:51.440Z,68.87
2022-11-09T03:32:19.068Z,69.75
2022-11-09T03:34:46.635Z,69.50
2022-11-09T03:37:14.262Z,68.91
2022-11-09T03:39:42.651Z,69.46
2022-11-09T03:42:10.180Z,69.24
2022-11-09T03:44:37.737Z,69.06
2022-11-09T03:47:05.333Z,69.67
2022-11-09T03:49:32.883Z,69.70
2022-11-09T03:52:00.756Z,69.52
2022-11-09T03:54:28.325Z,69.74
2022-11-09T03:56:55.905Z,69.79
2022-11-09T03:59:23.452Z,69.54
2022-11-09T04:01:51.373Z,69.71
2022-11-09T04:04:20.685Z,69.95
2022-11-09T04:06:48.271Z,69.59
2022-11-09T04:09:15.921Z,69.28
2022-11-09T04:11:43.494Z,69.23
2022-11-09T04:14:11.042Z,69.15
2022-11-09T04:16:39.864Z,69.33
2022-11-09T04:19:07.429Z,68.92
2022-11-09T04:21:35.094Z,68.93
2022-11-09T04:24:02.952Z,69.56
2022-11-09T04:26:30.473Z,69.62
2022-11-09T04:28:59.774Z,69.36
2022-11-09T04:31:28.322Z,69.63
2022-11-09T04:33:55.987Z,69.57
2022-11-09T04:36:23.621Z,69.31
2022-11-09T04:38:51.239Z,69.36
2022-11-09T04:41:18.826Z,69.16
2022-11-09T04:43:46.346Z,69.71
2022-11-09T04:46:14.199Z,69.98
2022-11-09T04:48:41.723Z,69.50
2022-11-09T04:51:10.531Z,69.78
2022-11-09T04:53:39.891Z,69.47
2022-11-09T04:56:07.460Z,69.89
2022-11-09T04:58:35.012Z,70.27
2022-11-09T05:01:02.611Z,70.03
2022-11-09T05:03:30.225Z,69.64
2022-11-09T05:05:58.105Z,69.46
2022-11-09T05:08:25.684Z,69.83
2022-11-09T05:10:53.230Z,69.51
2022-11-09T05:13:21.066Z,69.59
2022-11-09T05:15:48.951Z,69.58
2022-11-09T05:18:17.380Z,69.42
2022-11-09T05:20:44.969Z,69.98
2022-11-09T05:23:29.987Z,70.07
2022-11-09T05:25:57.578Z,69.59
2022-11-09T05:28:25.785Z,69.55
2022-11-09T05:30:53.418Z,69.79
2022-11-09T05:33:21.255Z,69.67
2022-11-09T05:35:48.997Z,69.79
2022-11-09T05:38:16.710Z,69.85
2022-11-09T05:40:45.539Z,69.16
2022-11-09T05:43:13.093Z,69.31
2022-11-09T05:45:43.403Z,69.79
2022-11-09T05:48:11.574Z,69.90
2022-11-09T05:50:39.439Z,70.37
2022-11-09T05:53:07.514Z,70.79
2022-11-09T05:55:35.061Z,71.16
2022-11-09T05:58:02.687Z,71.61
2022-11-09T06:00:30.347Z,71.64
2022-11-09T06:02:57.947Z,71.76
2022-11-09T06:05:26.924Z,71.22
2022-11-09T06:07:54.631Z,71.71
2022-11-09T06:10:22.206Z,71.74
2022-11-09T06:12:50.111Z,71.44
2022-11-09T06:15:17.792Z,71.30
2022-11-09T06:17:45.742Z,71.39
2022-11-09T06:20:13.360Z,71.76
2022-11-09T06:22:41.067Z,72.84
2022-11-09T06:25:08.683Z,73.24
2022-11-09T06:27:36.332Z,73.71
2022-11-09T06:30:05.264Z,73.90
2022-11-09T06:32:32.827Z,73.42
2022-11-09T06:35:00.749Z,73.54
2022-11-09T06:37:28.377Z,73.82
2022-11-09T06:39:56.009Z,73.47
2022-11-09T06:42:25.482Z,73.34
2022-11-09T06:44:53.183Z,73.30
2022-11-09T06:47:20.739Z,73.65
2022-11-09T06:49:48.349Z,73.61
2022-11-09T06:52:16.113Z,73.51
2022-11-09T06:54:44.895Z,73.40
2022-11-09T06:57:12.816Z,73.90
2022-11-09T06:59:40.479Z,73.62
2022-11-09T07:02:08.043Z,73.59
2022-11-09T07:04:35.722Z,74.03
2022-11-09T07:07:05.485Z,74.12
2022-11-09T07:09:33.210Z,75.42
2022-11-09T07:12:01.229Z,75.26
2022-11-09T07:14:28.936Z,76.33
2022-11-09T07:16:56.537Z,76.38
2022-11-09T07:19:24.837Z,76.48
2022-11-09T07:21:52.536Z,76.88
2022-11-09T07:24:20.185Z,77.28
2022-11-09T07:26:48.246Z,76.73
2022-11-09T07:29:15.998Z,77.28
2022-11-09T07:31:45.323Z,77.72
2022-11-09T07:34:12.918Z,77.59
2022-11-09T07:36:40.702Z,77.59
2022-11-09T07:39:08.419Z,77.37
2022-11-09T07:41:36.046Z,77.67
2022-11-09T07:44:04.192Z,77.62
2022-11-09T07:46:31.860Z,77.90
2022-11-09T07:48:59.451Z,77.82
2022-11-09T07:51:27.143Z,77.33
2022-11-09T07:53:54.770Z,77.67
2022-11-09T07:56:22.715Z,77.95
2022-11-09T07:58:50.436Z,78.01
2022-11-09T08:01:18.535Z,77.54
2022-11-09T08:03:46.348Z,77.90
2022-11-09T08:06:18.435Z,77.39
2022-11-09T08:08:50.145Z,77.39
2022-11-09T08:11:17.969Z,77.70
2022-11-09T08:13:45.824Z,77.36
2022-11-09T08:16:13.471Z,76.39
2022-11-09T08:18:41.351Z,77.13
2022-11-09T08:21:10.689Z,76.34
2022-11-09T08:23:38.584Z,76.39
2022-11-09T08:26:06.412Z,76.33
2022-11-09T08:28:34.116Z,76.18
2022-11-09T08:31:01.887Z,76.37
2022-11-09T08:33:29.996Z,75.65
2022-11-09T08:35:57.897Z,75.68
2022-11-09T08:38:25.593Z,75.67
2022-11-09T08:40:53.276Z,75.71
2022-11-09T08:43:21.088Z,76.51
2022-11-09T08:45:52.131Z,76.52
2022-11-09T08:48:20.349Z,75.90
2022-11-09T08:50:48.282Z,76.32
2022-11-09T08:53:16.003Z,76.54
2022-11-09T08:55:48.390Z,76.55
2022-11-09T08:58:17.864Z,76.40
2022-11-09T09:00:46.128Z,75.84
2022-11-09T09:03:13.789Z,75.86
2022-11-09T09:05:41.685Z,75.81
2022-11-09T09:08:11.839Z,75.20
2022-11-09T09:10:41.307Z,75.55
2022-11-09T09:13:09.177Z,74.56
2022-11-09T09:15:37.142Z,74.71
2022-11-09T09:18:04.880Z,74.40
2022-11-09T09:20:32.687Z,74.00
2022-11-09T09:23:01.779Z,73.71
2022-11-09T09:25:29.569Z,73.88
2022-11-09T09:27:57.631Z,73.53
2022-11-09T09:30:25.663Z,73.71
2022-11-09T09:32:53.443Z,73.49
2022-11-09T09:35:21.926Z,72.70
2022-11-09T09:37:49.862Z,72.85
2022-11-09T09:40:17.660Z,72.67
2022-11-09T09:42:45.336Z,72.06
2022-11-09T09:45:13.106Z,71.45
2022-11-09T09:47:41.196Z,70.80
2022-11-09T09:50:09.277Z,70.37
2022-11-09T09:52:37.269Z,69.98
2022-11-09T09:55:05.004Z,68.74
2022-11-09T09:57:35.413Z,67.75
2022-11-09T10:00:06.981Z,66.78
2022-11-09T10:02:34.768Z,66.09
2022-11-09T10:05:02.712Z,66.29
2022-11-09T10:07:30.694Z,66.17
2022-11-09T10:09:58.553Z,66.77
2022-11-09T10:12:27.521Z,67.23
2022-11-09T10:14:55.460Z,66.80
2022-11-09T10:17:23.245Z,67.22
2022-11-09T10:19:51.025Z,67.16
2022-11-09T10:22:18.987Z,67.42
2022-11-09T10:25:12.782Z,67.64
2022-11-09T10:27:35.603Z,67.53
2022-11-09T10:30:03.582Z,68.71
2022-11-09T10:32:31.603Z,69.25
2022-11-09T10:35:01.788Z,69.72
2022-11-09T10:37:29.781Z,69.45
2022-11-09T10:39:57.584Z,69.10
2022-11-09T10:42:25.436Z,67.57
2022-11-09T10:44:53.287Z,67.27
2022-11-09T10:47:23.184Z,67.08
2022-11-09T10:49:51.150Z,66.93
2022-11-09T10:52:18.896Z,66.23
2022-11-09T10:54:47.149Z,66.11
2022-11-09T10:57:15.171Z,66.02
2022-11-09T10:59:42.969Z,65.33
2022-11-09T11:02:11.071Z,65.06
2022-11-09T11:04:39.077Z,63.91
2022-11-09T11:07:07.000Z,63.67
2022-11-09T11:09:34.749Z,63.68
2022-11-09T11:12:04.089Z,64.14
2022-11-09T11:14:32.017Z,63.86
2022-11-09T11:17:00.236Z,63.98
2022-11-09T11:19:28.352Z,63.84
2022-11-09T11:21:56.203Z,63.70
2022-11-09T11:24:26.111Z,63.96
2022-11-09T11:26:54.031Z,63.68
2022-11-09T11:29:22.157Z,63.54
2022-11-09T11:31:50.005Z,63.67
2022-11-09T11:34:38.362Z,63.26
2022-11-09T11:37:06.504Z,62.67
2022-11-09T11:39:34.494Z,62.88
2022-11-09T11:42:02.375Z,63.23
2022-11-09T11:44:30.229Z,63.41
2022-11-09T11:46:58.372Z,63.24
2022-11-09T11:49:28.225Z,63.17
2022-11-09T11:51:56.045Z,63.16
2022-11-09T11:54:24.129Z,63.20
2022-11-09T11:56:51.998Z,62.97
2022-11-09T11:59:20.167Z,63.11
2022-11-09T12:01:51.354Z,62.96
2022-11-09T12:04:19.273Z,62.92
2022-11-09T12:06:47.071Z,63.03
2022-11-09T12:09:15.093Z,63.08
2022-11-09T12:11:43.020Z,62.71
2022-11-09T12:14:12.370Z,62.18
2022-11-09T12:16:40.998Z,61.79
2022-11-09T12:19:08.782Z,62.02
2022-11-09T12:21:37.573Z,61.84
2022-11-09T12:24:05.702Z,61.93
2022-11-09T12:26:35.414Z,61.35
2022-11-09T12:29:03.257Z,60.93
2022-11-09T12:31:31.624Z,60.85
2022-11-09T12:33:59.567Z,60.49
2022-11-09T12:36:27.468Z,60.03
2022-11-09T12:38:56.488Z,59.91
2022-11-09T12:41:24.348Z,60.00
2022-11-09T12:43:52.516Z,59.42
2022-11-09T12:46:20.535Z,59.67
2022-11-09T12:48:48.410Z,59.08
2022-11-09T12:51:17.385Z,59.36
2022-11-09T12:53:45.449Z,59.12
2022-11-09T12:56:13.266Z,58.99
2022-11-09T12:58:41.147Z,59.03
2022-11-09T13:01:09.233Z,58.27
2022-11-09T13:03:37.941Z,58.63
2022-11-09T13:06:06.086Z,58.00
2022-11-09T13:08:33.998Z,57.67
2022-11-09T13:11:01.839Z,57.57
2022-11-09T13:13:29.733Z,57.88
2022-11-09T13:15:58.185Z,58.50
2022-11-09T13:18:26.024Z,58.39
2022-11-09T13:20:55.840Z,58.20
2022-11-09T13:23:47.720Z,58.65
2022-11-09T13:26:13.613Z,58.36
2022-11-09T13:28:41.687Z,58.54
2022-11-09T13:31:09.640Z,59.02
2022-11-09T13:33:37.402Z,58.99
2022-11-09T13:36:05.380Z,58.97
2022-11-09T13:38:33.794Z,58.82
2022-11-09T13:41:01.785Z,58.93
2022-11-09T13:43:29.716Z,58.45
2022-11-09T13:45:57.506Z,58.56
2022-11-09T13:48:25.566Z,58.15
2022-11-09T13:50:56.548Z,57.82
2022-11-09T13:53:24.706Z,57.61
2022-11-09T13:55:52.658Z,57.68
2022-11-09T13:58:20.888Z,58.51
2022-11-09T14:00:49.014Z,58.59
2022-11-09T14:03:17.344Z,58.71
2022-11-09T14:05:45.295Z,58.69
2022-11-09T14:08:13.147Z,57.90
2022-11-09T14:10:40.960Z,58.06
2022-11-09T14:13:09.042Z,57.98
2022-11-09T14:15:38.137Z,57.87
2022-11-09T14:18:05.878Z,58.55
2022-11-09T14:20:33.973Z,57.88
2022-11-09T14:23:01.877Z,57.54
2022-11-09T14:25:31.210Z,57.27
2022-11-09T14:27:59.749Z,57.34
2022-11-09T14:30:27.592Z,58.00
2022-11-09T14:32:55.764Z,58.23
2022-11-09T14:35:23.779Z,57.97
2022-11-09T14:37:51.687Z,58.58
2022-11-09T14:40:21.509Z,59.01
2022-11-09T14:42:49.416Z,58.61
2022-11-09T14:45:17.350Z,58.48
2022-11-09T14:47:45.276Z,58.57
2022-11-09T14:50:13.230Z,59.13
2022-11-09T14:52:42.793Z,58.51
2022-11-09T14:55:10.855Z,58.67
2022-11-09T14:57:38.905Z,58.97
2022-11-09T15:00:06.710Z,58.87
2022-11-09T15:02:34.810Z,58.71
2022-11-09T15:05:04.655Z,58.63
2022-11-09T15:07:32.486Z,58.71
2022-11-09T15:10:00.397Z,58.90
2022-11-09T15:12:29.960Z,59.45
2022-11-09T15:14:57.793Z,59.33
2022-11-09T15:17:26.367Z,58.98
2022-11-09T15:19:54.521Z,59.03
2022-11-09T15:22:22.345Z,59.04
2022-11-09T15:24:50.144Z,59.26
2022-11-09T15:27:18.112Z,59.26
2022-11-09T15:29:48.215Z,58.95
2022-11-09T15:32:16.167Z,59.53
2022-11-09T15:34:44.101Z,59.68
2022-11-09T15:37:12.024Z,59.96
2022-11-09T15:39:39.788Z,59.87
2022-11-09T15:42:09.021Z,59.95
2022-11-09T15:44:37.702Z,59.89
2022-11-09T15:47:07.672Z,59.90
2022-11-09T15:49:35.652Z,60.37
2022-11-09T15:52:03.553Z,60.32
2022-11-09T15:54:34.330Z,60.55
2022-11-09T15:57:02.253Z,60.63
2022-11-09T15:59:30.429Z,61.11
2022-11-09T16:01:58.353Z,61.11
2022-11-09T16:04:26.322Z,60.96
2022-11-09T16:06:56.015Z,61.12
2022-11-09T16:09:24.020Z,61.54
2022-11-09T16:11:51.939Z,61.17
2022-11-09T16:14:22.228Z,61.90
2022-11-09T16:16:50.159Z,61.79
2022-11-09T16:19:19.566Z,61.96
2022-11-09T16:21:47.667Z,62.50
2022-11-09T16:24:15.531Z,61.73
2022-11-09T16:26:43.590Z,62.14
2022-11-09T16:29:11.355Z,62.93
2022-11-09T16:31:51.264Z,62.21
2022-11-09T16:34:20.043Z,63.09
2022-11-09T16:36:51.086Z,63.03
2022-11-09T16:39:21.811Z,63.97
2022-11-09T16:41:51.311Z,63.56
2022-11-09T16:44:19.162Z,64.33
2022-11-09T16:46:47.359Z,64.41
2022-11-09T16:49:15.174Z,64.62
2022-11-09T16:51:43.079Z,64.54
2022-11-09T16:54:12.006Z,64.22
2022-11-09T16:56:39.947Z,64.54
2022-11-09T16:59:07.738Z,64.74
2022-11-09T17:01:35.775Z,64.32
2022-11-09T17:04:03.867Z,64.89
2022-11-09T17:06:34.094Z,64.65
2022-11-09T17:09:02.177Z,64.45
2022-11-09T17:11:30.138Z,64.66
2022-11-09T17:13:58.023Z,64.35
2022-11-09T17:16:26.070Z,64.64
2022-11-09T17:18:55.579Z,64.50
2022-11-09T17:21:23.440Z,64.78
2022-11-09T17:23:51.392Z,64.91
2022-11-09T17:26:19.539Z,64.48
2022-11-09T17:28:47.404Z,65.04
2022-11-09T17:31:18.422Z,64.26
2022-11-09T17:33:46.379Z,64.30
2022-11-09T17:36:14.242Z,64.98
2022-11-09T17:38:42.417Z,64.96
2022-11-09T17:41:10.421Z,64.71
2022-11-09T17:43:38.720Z,64.73
2022-11-09T17:46:06.730Z,64.70
2022-11-09T17:48:34.827Z,65.15
2022-11-09T17:51:02.659Z,64.94
2022-11-09T17:53:30.653Z,64.67
2022-11-09T17:55:59.100Z,64.75
2022-11-09T17:58:26.983Z,64.75
2022-11-09T18:00:55.008Z,65.37
2022-11-09T18:03:23.325Z,65.29
2022-11-09T18:05:51.165Z,65.17
2022-11-09T18:08:19.885Z,64.77
2022-11-09T18:10:47.952Z,65.44
2022-11-09T18:13:15.858Z,64.88
2022-11-09T18:15:44.006Z,65.34
2022-11-09T18:18:11.893Z,65.32
2022-11-09T18:20:41.863Z,64.99
2022-11-09T18:23:09.904Z,65.13
2022-11-09T18:25:37.896Z,65.37
2022-11-09T18:28:05.840Z,64.69
2022-11-09T18:30:33.747Z,65.27
2022-11-09T18:33:01.782Z,65.31
2022-11-09T18:35:29.789Z,65.40
2022-11-09T18:37:57.806Z,65.58
2022-11-09T18:40:25.695Z,65.27
2022-11-09T18:42:53.495Z,65.53
2022-11-09T18:45:22.601Z,65.08
2022-11-09T18:47:50.802Z,65.69
2022-11-09T18:50:19.758Z,65.69
2022-11-09T18:52:47.758Z,65.34
2022-11-09T18:55:15.866Z,65.95
2022-11-09T18:57:45.770Z,65.48
2022-11-09T19:00:13.902Z,65.40
2022-11-09T19:02:41.743Z,65.51
2022-11-09T19:05:09.643Z,65.46
2022-11-09T19:07:37.853Z,65.73
2022-11-09T19:10:06.167Z,66.02
2022-11-09T19:12:34.005Z,66.12
2022-11-09T19:15:02.016Z,65.79
2022-11-09T19:17:30.179Z,65.81
2022-11-09T19:19:57.977Z,65.97
2022-11-09T19:22:29.887Z,66.00
2022-11-09T19:24:57.695Z,65.72
2022-11-09T19:27:28.948Z,65.80
2022-11-09T19:29:56.974Z,66.24
2022-11-09T19:32:24.732Z,66.33
2022-11-09T19:34:54.101Z,66.33
2022-11-09T19:37:22.107Z,65.83
2022-11-09T19:39:50.094Z,65.86
2022-11-09T19:42:17.910Z,66.26
2022-11-09T19:44:45.986Z,65.97
2022-11-09T19:47:14.980Z,66.19
2022-11-09T19:49:42.855Z,66.65
2022-11-09T19:52:10.999Z,66.61
2022-11-09T19:54:38.949Z,66.22
2022-11-09T19:57:06.810Z,66.40
2022-11-09T19:59:35.924Z,66.34
2022-11-09T20:02:03.970Z,66.96
2022-11-09T20:04:33.296Z,66.41
2022-11-09T20:07:01.260Z,67.01
2022-11-09T20:09:29.141Z,66.84
2022-11-09T20:12:14.727Z,67.13
2022-11-09T20:14:42.575Z,66.59
2022-11-09T20:17:10.480Z,66.72
2022-11-09T20:19:38.475Z,66.77
2022-11-09T20:22:06.617Z,66.79
2022-11-09T20:24:34.739Z,66.65
2022-11-09T20:27:03.241Z,66.68
2022-11-09T20:29:31.064Z,66.70
2022-11-09T20:31:58.906Z,67.13
2022-11-09T20:34:29.965Z,66.80
2022-11-09T20:36:58.366Z,66.87
2022-11-09T20:39:27.282Z,66.89
2022-11-09T20:41:55.290Z,67.44
2022-11-09T20:44:23.466Z,67.21
2022-11-09T20:46:51.347Z,67.45
2022-11-09T20:49:19.685Z,67.50
2022-11-09T20:51:47.506Z,67.88
2022-11-09T20:54:15.311Z,67.53
2022-11-09T20:56:43.155Z,67.57
2022-11-09T20:59:11.049Z,67.63
2022-11-09T21:01:39.256Z,67.38
2022-11-09T21:04:08.202Z,67.67
2022-11-09T21:06:36.397Z,68.07
2022-11-09T21:09:05.852Z,67.94
2022-11-09T21:11:36.577Z,67.81
2022-11-09T21:14:04.791Z,68.19
2022-11-09T21:16:34.297Z,67.95
2022-11-09T21:19:02.438Z,67.91
2022-11-09T21:21:36.087Z,67.84
2022-11-09T21:24:22.224Z,68.11
2022-11-09T21:27:07.792Z,68.08
2022-11-09T21:29:55.445Z,67.88
2022-11-09T21:32:23.289Z,68.10
2022-11-09T21:34:52.027Z,68.39
2022-11-09T21:37:19.907Z,68.27
2022-11-09T21:39:47.710Z,68.32
2022-11-09T21:42:16.450Z,68.32
2022-11-09T21:44:44.506Z,67.98
2022-11-09T21:47:13.175Z,68.11
2022-11-09T21:49:41.170Z,68.42
2022-11-09T21:52:09.118Z,68.75
2022-11-09T21:54:36.888Z,68.32
2022-11-09T21:57:04.698Z,68.55
2022-11-09T21:59:33.037Z,68.70
2022-11-09T22:02:00.876Z,68.42
2022-11-09T22:04:28.647Z,69.17
2022-11-09T22:06:57.774Z,69.14
2022-11-09T22:09:25.631Z,69.19
2022-11-09T22:12:11.279Z,69.17
2022-11-09T22:14:56.210Z,69.13
2022-11-09T22:17:24.843Z,69.29
2022-11-09T22:20:10.034Z,69.53
2022-11-09T22:22:37.809Z,69.40
2022-11-09T22:25:05.524Z,69.47
2022-11-09T22:27:35.591Z,69.40
2022-11-09T22:30:03.411Z,69.00
2022-11-09T22:32:31.142Z,69.81
2022-11-09T22:34:59.069Z,69.25
2022-11-09T22:37:26.837Z,69.83
2022-11-09T22:39:55.949Z,69.40
2022-11-09T22:42:23.718Z,69.29
2022-11-09T22:44:51.731Z,69.80
2022-11-09T22:47:19.504Z,69.25
2022-11-09T22:49:47.519Z,69.10
2022-11-09T22:52:15.295Z,69.24
2022-11-09T22:54:43.003Z,69.61
2022-11-09T22:57:10.849Z,69.19
2022-11-09T22:59:38.977Z,69.35
2022-11-09T23:02:06.786Z,69.36
2022-11-09T23:04:34.494Z,69.22
2022-11-09T23:07:02.338Z,69.10
2022-11-09T23:09:30.174Z,69.72
2022-11-09T23:11:58.207Z,69.40
2022-11-09T23:14:39.638Z,69.60
2022-11-09T23:17:27.698Z,69.05
2022-11-09T23:19:54.405Z,69.14
2022-11-09T23:22:22.433Z,69.23
2022-11-09T23:25:07.589Z,69.33
2022-11-09T23:27:35.188Z,69.42
2022-11-09T23:30:02.780Z,69.69
2022-11-09T23:32:31.080Z,69.83
2022-11-09T23:34:58.685Z,69.88
2022-11-09T23:37:26.288Z,69.88
2022-11-09T23:39:55.330Z,70.28
2022-11-09T23:42:22.915Z,70.29
2022-11-09T23:44:50.848Z,70.45
2022-11-09T23:47:18.459Z,70.15
2022-11-09T23:49:46.061Z,70.36
2022-11-09T23:52:14.412Z,70.07
2022-11-09T23:54:42.304Z,70.34
2022-11-09T23:57:10.250Z,70.20
2022-11-09T23:59:37.806Z,70.12
